Terminal Aerodrome Forecast
Issued by NWS

Home | Current Version | Previous Version | Text Only | Print | Product List | Glossary On
Versions: 1 2 3 4 5 6 7 8 9 10 11 12 13 14 15 16 17 18 19 20 21 22 23 24 25 26 27 28 29 30 31
000
FTUS46 KPDT 202300
TAFALW
TAF
KALW 202322Z 2100/2124 VRB04KT 3SM BR OVC060
     FM210900 13004KT 2SM BR BKN060
     FM211400 16005KT 3SM BR BKN045 OVC060
     FM212100 17008KT 6SM BR OVC080=

USA.gov is the U.S. government's official web portal to all federal, state and local government web resources and services.